createdAt,value
2022-08-05T00:02:28.647Z,995.15
2022-08-05T00:07:59.814Z,995.17
2022-08-05T00:12:27.704Z,995.18
2022-08-05T00:17:26.621Z,995.16
2022-08-05T00:22:26.564Z,995.13
2022-08-05T00:27:35.608Z,995.01
2022-08-05T00:32:26.435Z,994.96
2022-08-05T00:37:26.589Z,995.00
2022-08-05T00:42:32.076Z,994.98
2022-08-05T00:47:26.268Z,994.95
2022-08-05T00:52:28.174Z,994.89
2022-08-05T00:57:31.801Z,995.00
2022-08-05T01:02:27.064Z,994.86
2022-08-05T01:07:31.640Z,994.85
2022-08-05T01:12:29.681Z,994.91
2022-08-05T01:17:25.866Z,994.99
2022-08-05T01:22:28.036Z,994.88
2022-08-05T01:27:25.836Z,994.90
2022-08-05T01:32:27.722Z,994.85
2022-08-05T01:37:25.790Z,994.92
2022-08-05T01:42:25.520Z,994.97
2022-08-05T01:47:38.881Z,994.97
2022-08-05T01:52:26.420Z,994.98
2022-08-05T01:58:12.772Z,994.88
2022-08-05T02:02:28.601Z,994.90
2022-08-05T02:07:25.481Z,994.83
2022-08-05T02:12:25.264Z,994.79
2022-08-05T02:18:28.107Z,994.85
2022-08-05T02:22:27.190Z,994.83
2022-08-05T02:27:29.997Z,994.70
2022-08-05T02:32:30.855Z,994.65
2022-08-05T02:37:25.146Z,994.71
2022-08-05T02:42:25.950Z,994.79
2022-08-05T02:47:25.102Z,994.84
2022-08-05T02:52:26.007Z,994.84
2022-08-05T02:58:11.080Z,994.83
2022-08-05T03:02:27.587Z,994.91
2022-08-05T03:08:01.243Z,995.00
2022-08-05T03:12:25.340Z,994.99
2022-08-05T03:17:24.441Z,994.93
2022-08-05T03:22:32.571Z,994.94
2022-08-05T03:27:39.158Z,994.98
2022-08-05T03:32:31.080Z,994.99
2022-08-05T03:37:24.150Z,995.00
2022-08-05T03:42:23.928Z,995.01
2022-08-05T03:47:24.258Z,994.95
2022-08-05T03:52:39.069Z,995.16
2022-08-05T03:57:41.590Z,995.24
2022-08-05T04:02:38.245Z,995.21
2022-08-05T04:07:25.177Z,995.33
2022-08-05T04:12:24.796Z,995.53
2022-08-05T04:17:23.676Z,996.23
2022-08-05T04:22:24.438Z,996.55
2022-08-05T04:27:32.961Z,996.38
2022-08-05T04:32:31.040Z,996.43
2022-08-05T04:38:01.727Z,996.44
2022-08-05T04:42:25.445Z,996.26
2022-08-05T04:47:23.378Z,996.50
2022-08-05T04:52:23.050Z,996.54
2022-08-05T04:57:23.174Z,996.61
2022-08-05T05:02:37.045Z,996.54
2022-08-05T05:07:29.628Z,996.48
2022-08-05T05:12:22.824Z,996.68
2022-08-05T05:17:24.695Z,996.47
2022-08-05T05:22:26.533Z,996.19
2022-08-05T05:27:22.804Z,996.09
2022-08-05T05:32:22.517Z,996.09
2022-08-05T05:37:22.698Z,995.91
2022-08-05T05:42:23.421Z,995.87
2022-08-05T05:47:22.410Z,995.97
2022-08-05T05:52:28.392Z,995.94
2022-08-05T05:57:22.357Z,995.89
2022-08-05T06:02:32.886Z,995.88
2022-08-05T06:07:23.352Z,996.01
2022-08-05T06:12:23.030Z,996.15
2022-08-05T06:17:24.642Z,995.99
2022-08-05T06:22:21.879Z,996.21
2022-08-05T06:28:12.510Z,996.40
2022-08-05T06:32:26.412Z,996.52
2022-08-05T06:37:56.447Z,996.67
2022-08-05T06:42:22.661Z,996.75
2022-08-05T06:48:11.472Z,996.86
2022-08-05T06:52:36.578Z,997.06
2022-08-05T06:58:02.248Z,997.16
2022-08-05T07:02:22.760Z,997.13
2022-08-05T07:07:24.018Z,997.34
2022-08-05T07:12:22.271Z,997.21
2022-08-05T07:18:08.139Z,997.23
2022-08-05T07:22:22.152Z,997.40
2022-08-05T07:27:21.610Z,997.21
2022-08-05T07:32:26.008Z,997.24
2022-08-05T07:37:20.936Z,997.27
2022-08-05T07:42:31.844Z,997.39
2022-08-05T07:47:22.108Z,997.47
2022-08-05T07:52:20.736Z,997.47
2022-08-05T07:57:52.197Z,997.53
2022-08-05T08:02:21.645Z,997.42
2022-08-05T08:07:22.898Z,997.32
2022-08-05T08:12:33.294Z,997.46
2022-08-05T08:17:21.820Z,997.27
2022-08-05T08:22:20.369Z,997.23
2022-08-05T08:27:20.314Z,997.21
2022-08-05T08:32:28.083Z,997.19
2022-08-05T08:37:20.179Z,997.04
2022-08-05T08:42:35.469Z,997.08
2022-08-05T08:47:47.472Z,997.08
2022-08-05T08:52:21.007Z,996.91
2022-08-05T08:57:19.977Z,996.78
2022-08-05T09:02:19.970Z,996.62
2022-08-05T09:07:28.398Z,996.73
2022-08-05T09:12:30.067Z,996.70
2022-08-05T09:17:42.860Z,996.99
2022-08-05T09:22:30.880Z,996.68
2022-08-05T09:28:04.775Z,996.61
2022-08-05T09:32:45.910Z,996.64
2022-08-05T09:38:16.341Z,996.67
2022-08-05T09:42:24.523Z,996.88
2022-08-05T09:47:20.647Z,996.93
2022-08-05T09:52:19.248Z,996.95
2022-08-05T09:57:20.615Z,996.92
2022-08-05T10:02:20.470Z,996.98
2022-08-05T10:07:20.716Z,996.95
2022-08-05T10:12:31.504Z,996.86
2022-08-05T10:17:37.892Z,996.69
2022-08-05T10:22:29.560Z,996.81
2022-08-05T10:27:18.851Z,996.88
2022-08-05T10:32:52.972Z,996.75
2022-08-05T10:37:20.218Z,996.69
2022-08-05T10:42:18.838Z,996.69
2022-08-05T10:47:26.742Z,996.59
2022-08-05T10:52:19.530Z,996.55
2022-08-05T10:57:18.436Z,996.50
2022-08-05T11:02:34.565Z,996.47
2022-08-05T11:07:19.350Z,996.40
2022-08-05T11:12:19.267Z,996.33
2022-08-05T11:17:57.031Z,996.30
2022-08-05T11:22:19.154Z,996.32
2022-08-05T11:27:18.059Z,996.35
2022-08-05T11:32:18.037Z,996.34
2022-08-05T11:38:28.627Z,996.28
2022-08-05T11:42:18.888Z,996.23
2022-08-05T11:47:21.986Z,996.24
2022-08-05T11:52:17.739Z,996.29
2022-08-05T11:57:26.065Z,996.29
2022-08-05T12:02:29.750Z,996.23
2022-08-05T12:07:18.583Z,996.16
2022-08-05T12:12:18.522Z,996.12
2022-08-05T12:18:02.774Z,996.13
2022-08-05T12:22:20.123Z,996.22
2022-08-05T12:27:21.662Z,996.24
2022-08-05T12:32:17.240Z,996.32
2022-08-05T12:37:21.818Z,996.37
2022-08-05T12:42:17.119Z,996.41
2022-08-05T12:47:17.875Z,996.43
2022-08-05T12:52:23.797Z,996.50
2022-08-05T12:57:17.963Z,996.54
2022-08-05T13:02:17.006Z,996.56
2022-08-05T13:07:17.315Z,996.62
2022-08-05T13:12:16.991Z,996.64
2022-08-05T13:17:16.761Z,996.67
2022-08-05T13:22:28.491Z,996.73
2022-08-05T13:27:35.333Z,996.72
2022-08-05T13:32:29.164Z,996.80
2022-08-05T13:37:27.233Z,996.77
2022-08-05T13:42:17.401Z,996.81
2022-08-05T13:47:34.864Z,996.87
2022-08-05T13:52:17.277Z,996.87
2022-08-05T13:57:16.325Z,996.92
2022-08-05T14:02:20.013Z,996.86
2022-08-05T14:07:25.592Z,996.81
2022-08-05T14:12:17.662Z,996.80
2022-08-05T14:17:15.935Z,996.87
2022-08-05T14:22:15.865Z,996.92
2022-08-05T14:27:17.746Z,996.93
2022-08-05T14:32:27.090Z,996.94
2022-08-05T14:37:16.707Z,996.99
2022-08-05T14:42:21.157Z,997.07
2022-08-05T14:47:15.574Z,997.05
2022-08-05T14:52:30.618Z,997.08
2022-08-05T14:57:17.441Z,997.13
2022-08-05T15:02:15.753Z,997.12
2022-08-05T15:08:04.535Z,997.18
2022-08-05T15:12:17.015Z,997.23
2022-08-05T15:17:44.512Z,997.43
2022-08-05T15:22:16.157Z,997.47
2022-08-05T15:27:15.068Z,997.90
2022-08-05T15:32:15.007Z,998.10
2022-08-05T15:37:19.371Z,998.34
2022-08-05T15:42:54.609Z,998.55
2022-08-05T15:47:15.841Z,998.78
2022-08-05T15:52:29.116Z,999.14
2022-08-05T15:57:15.721Z,999.28
2022-08-05T16:02:25.273Z,999.32
2022-08-05T16:07:14.576Z,999.61
2022-08-05T16:12:15.197Z,999.54
2022-08-05T16:17:14.445Z,999.79
2022-08-05T16:22:15.442Z,1000.02
2022-08-05T16:27:15.902Z,1000.02
2022-08-05T16:32:14.249Z,1000.24
2022-08-05T16:38:03.627Z,1000.37
2022-08-05T16:42:19.417Z,1000.54
2022-08-05T16:47:28.648Z,1000.52
2022-08-05T16:52:15.007Z,1000.49
2022-08-05T16:57:14.972Z,1000.56
2022-08-05T17:02:13.917Z,1000.65
2022-08-05T17:07:13.809Z,1000.68
2022-08-05T17:12:14.752Z,1000.74
2022-08-05T17:17:14.883Z,1000.75
2022-08-05T17:22:24.560Z,1000.78
2022-08-05T17:27:16.166Z,1000.97
2022-08-05T17:32:17.116Z,1001.18
2022-08-05T17:37:39.268Z,1001.17
2022-08-05T17:42:19.707Z,1001.03
2022-08-05T17:47:15.281Z,1001.24
2022-08-05T17:52:13.202Z,1001.12
2022-08-05T17:57:13.154Z,1001.13
2022-08-05T18:02:13.084Z,1001.17
2022-08-05T18:07:13.019Z,1001.41
2022-08-05T18:12:12.947Z,1001.63
2022-08-05T18:17:59.194Z,1001.61
2022-08-05T18:22:17.988Z,1001.78
2022-08-05T18:27:18.826Z,1001.77
2022-08-05T18:32:13.219Z,1001.59
2022-08-05T18:37:33.446Z,1001.66
2022-08-05T18:42:13.659Z,1001.83
2022-08-05T18:47:12.523Z,1002.06
2022-08-05T18:52:12.464Z,1002.11
2022-08-05T18:57:15.556Z,1002.27
2022-08-05T19:02:26.650Z,1002.36
2022-08-05T19:07:13.296Z,1002.59
2022-08-05T19:12:12.208Z,1002.60
2022-08-05T19:17:12.134Z,1002.51
2022-08-05T19:22:12.084Z,1002.70
2022-08-05T19:27:12.023Z,1002.71
2022-08-05T19:32:11.955Z,1002.72
2022-08-05T19:37:11.879Z,1002.74
2022-08-05T19:42:13.472Z,1002.72
2022-08-05T19:47:11.746Z,1002.76
2022-08-05T19:52:31.695Z,1002.82
2022-08-05T19:57:12.648Z,1002.84
2022-08-05T20:02:11.566Z,1003.18
2022-08-05T20:07:13.386Z,1003.52
2022-08-05T20:12:11.437Z,1003.27
2022-08-05T20:17:12.543Z,1003.56
2022-08-05T20:22:11.305Z,1003.50
2022-08-05T20:27:11.797Z,1003.61
2022-08-05T20:32:11.167Z,1003.56
2022-08-05T20:37:24.082Z,1003.57
2022-08-05T20:42:12.073Z,1003.61
2022-08-05T20:47:10.964Z,1003.77
2022-08-05T20:52:12.388Z,1003.81
2022-08-05T20:57:10.830Z,1003.60
2022-08-05T21:02:11.102Z,1003.65
2022-08-05T21:07:10.819Z,1003.99
2022-08-05T21:12:11.851Z,1004.07
2022-08-05T21:17:10.573Z,1004.05
2022-08-05T21:22:10.535Z,1003.94
2022-08-05T21:27:10.442Z,1003.86
2022-08-05T21:32:10.388Z,1003.94
2022-08-05T21:37:10.312Z,1003.97
2022-08-05T21:42:40.939Z,1004.05
2022-08-05T21:47:17.620Z,1003.90
2022-08-05T21:52:16.060Z,1003.99
2022-08-05T21:57:30.237Z,1004.06
2022-08-05T22:02:11.024Z,1004.13
2022-08-05T22:07:09.924Z,1004.13
2022-08-05T22:12:10.851Z,1004.28
2022-08-05T22:17:09.795Z,1004.35
2022-08-05T22:22:09.743Z,1004.50
2022-08-05T22:27:10.910Z,1004.61
2022-08-05T22:32:10.051Z,1004.66
2022-08-05T22:37:09.542Z,1004.67
2022-08-05T22:42:15.491Z,1004.80
2022-08-05T22:47:11.816Z,1004.83
2022-08-05T22:52:15.543Z,1004.89
2022-08-05T22:57:10.299Z,1004.86
2022-08-05T23:02:09.527Z,1004.78
2022-08-05T23:07:09.163Z,1004.78
2022-08-05T23:12:09.086Z,1004.83
2022-08-05T23:17:09.017Z,1004.82
2022-08-05T23:22:08.948Z,1004.91
2022-08-05T23:27:08.886Z,1005.02
2022-08-05T23:32:08.811Z,1005.06
2022-08-05T23:37:08.735Z,1005.08
2022-08-05T23:42:14.186Z,1005.09
2022-08-05T23:47:15.497Z,1005.03
2022-08-05T23:52:08.543Z,1005.30
2022-08-05T23:57:08.486Z,1005.35
